Time;durP1;ratioP1;P1;durP2;ratioP2;P2;SDS_P1;SDS_P2;PMS_P1;PMS_P2;Temp;Humidity;BMP_temperature;BMP_pressure;BME280_temperature;BME280_humidity;BME280_pressure;Samples;Min_cycle;Max_cycle;Signal;HPM_P1;HPM_P2
2022/10/17 00:01:44;;;;;;;7.00;4.37;;;13.90;90.90;;;;;;1872794;77;21103;-57
2022/10/17 00:04:13;;;;;;;6.90;3.95;;;13.90;91.00;;;;;;1872788;77;21030;-57
2022/10/17 00:06:43;;;;;;;6.12;3.85;;;13.80;91.00;;;;;;1872793;77;21021;-57
2022/10/17 00:09:12;;;;;;;5.35;4.30;;;13.70;91.00;;;;;;1872829;77;21037;-57
2022/10/17 00:11:41;;;;;;;8.08;4.80;;;13.70;90.90;;;;;;1872818;77;21017;-57
2022/10/17 00:14:10;;;;;;;5.08;4.42;;;13.60;91.00;;;;;;1872760;77;21115;-57
2022/10/17 00:16:40;;;;;;;6.12;4.60;;;13.60;91.00;;;;;;1872873;77;21049;-58
2022/10/17 00:19:09;;;;;;;7.30;4.67;;;13.50;91.00;;;;;;1872771;77;21017;-58
2022/10/17 00:21:38;;;;;;;7.67;4.90;;;13.50;91.10;;;;;;1872776;77;21091;-57
2022/10/17 00:24:07;;;;;;;11.83;5.97;;;13.40;91.10;;;;;;1872761;77;21099;-57
2022/10/17 00:26:36;;;;;;;5.83;5.20;;;13.30;91.10;;;;;;1872807;77;21029;-57
2022/10/17 00:29:05;;;;;;;6.83;5.65;;;13.30;91.10;;;;;;1872758;77;21178;-57
2022/10/17 00:31:35;;;;;;;7.05;5.58;;;13.30;91.20;;;;;;1872888;76;21022;-57
2022/10/17 00:34:04;;;;;;;7.58;5.58;;;13.20;91.10;;;;;;1872743;76;21026;-58
2022/10/17 00:36:33;;;;;;;9.30;5.72;;;13.10;91.10;;;;;;1872780;77;21021;-57
2022/10/17 00:39:02;;;;;;;8.03;5.72;;;13.10;91.10;;;;;;1872768;77;21018;-57
2022/10/17 00:41:33;;;;;;;6.87;5.17;;;13.10;91.10;;;;;;1872883;77;21050;-57
2022/10/17 00:44:09;;;;;;;7.05;5.12;;;13.10;91.00;;;;;;1872051;77;21085;-57
2022/10/17 00:46:39;;;;;;;5.73;5.10;;;13.10;91.10;;;;;;1867952;77;21469;-57
2022/10/17 00:49:11;;;;;;;9.43;5.55;;;13.10;91.10;;;;;;1872591;76;21082;-57
2022/10/17 00:52:01;;;;;;;7.22;5.03;;;13.10;91.00;;;;;;1872782;77;21026;-57
2022/10/17 00:54:33;;;;;;;6.90;5.05;;;13.10;91.00;;;;;;1872612;76;21439;-57
2022/10/17 00:57:03;;;;;;;7.75;5.45;;;13.10;91.00;;;;;;1871787;76;21065;-57
2022/10/17 00:59:35;;;;;;;8.53;5.17;;;13.10;91.00;;;;;;1872770;77;21033;-57
2022/10/17 01:02:07;;;;;;;8.95;5.03;;;13.10;91.00;;;;;;1872817;77;21457;-57
2022/10/17 01:04:37;;;;;;;5.70;5.10;;;13.10;91.00;;;;;;1872878;77;21131;-57
2022/10/17 01:07:07;;;;;;;7.03;4.97;;;13.10;90.90;;;;;;1872805;77;21065;-57
2022/10/17 01:09:37;;;;;;;8.00;4.75;;;13.10;90.90;;;;;;1872676;77;21026;-57
2022/10/17 01:12:30;;;;;;;6.00;4.78;;;13.10;90.80;;;;;;1872768;77;21091;-57
2022/10/17 01:15:22;;;;;;;6.45;4.87;;;13.10;90.70;;;;;;1872117;76;21046;-57
2022/10/17 01:17:54;;;;;;;7.37;4.85;;;13.00;90.70;;;;;;1872737;77;21057;-57
2022/10/17 01:20:44;;;;;;;5.37;4.50;;;13.00;90.70;;;;;;1871223;76;21025;-57
2022/10/17 01:23:30;;;;;;;5.33;4.67;;;13.00;90.70;;;;;;1872789;77;21045;-57
2022/10/17 01:26:10;;;;;;;5.12;4.62;;;13.00;90.80;;;;;;1813953;76;21039;-57
2022/10/17 01:29:07;;;;;;;5.60;4.60;;;13.00;90.80;;;;;;1872396;76;21073;-57
2022/10/17 01:31:41;;;;;;;6.25;4.87;;;13.00;90.80;;;;;;1872784;77;21018;-57
2022/10/17 01:34:19;;;;;;;5.28;4.70;;;13.00;90.70;;;;;;1872573;76;21135;-57
2022/10/17 01:37:17;;;;;;;8.03;4.85;;;13.00;90.70;;;;;;1872744;77;21128;-57
2022/10/17 01:39:48;;;;;;;6.78;4.67;;;13.00;90.80;;;;;;1872827;77;21139;-57
2022/10/17 01:42:35;;;;;;;7.90;4.37;;;13.00;90.90;;;;;;1872022;76;21483;-57
2022/10/17 01:45:19;;;;;;;6.33;4.53;;;13.00;90.90;;;;;;1872874;77;21121;-57
2022/10/17 01:47:51;;;;;;;7.87;4.60;;;13.10;91.00;;;;;;1873017;77;21186;-57
2022/10/17 01:50:38;;;;;;;6.12;4.37;;;13.10;90.80;;;;;;1872872;75;21141;-57
2022/10/17 01:53:23;;;;;;;7.67;4.97;;;13.10;90.90;;;;;;1872086;76;21126;-57
2022/10/17 01:55:55;;;;;;;6.45;4.85;;;13.10;90.90;;;;;;1872909;77;21006;-57
2022/10/17 01:58:42;;;;;;;7.55;4.55;;;13.10;90.90;;;;;;1872913;77;21010;-57
2022/10/17 02:01:12;;;;;;;6.17;4.40;;;13.20;91.00;;;;;;1872894;76;21507;-57
2022/10/17 02:03:43;;;;;;;9.43;4.92;;;13.20;91.00;;;;;;1872870;77;21018;-57
2022/10/17 02:06:12;;;;;;;5.30;4.53;;;13.20;91.00;;;;;;1873053;77;21011;-57
2022/10/17 02:08:44;;;;;;;7.75;5.08;;;13.20;91.10;;;;;;1872846;76;21014;-57
2022/10/17 02:11:16;;;;;;;5.05;4.55;;;13.20;91.00;;;;;;1872858;76;21081;-57
2022/10/17 02:14:00;;;;;;;7.03;5.42;;;13.20;91.30;;;;;;1871070;76;20998;-57
2022/10/17 02:16:42;;;;;;;9.03;5.08;;;13.20;91.00;;;;;;1872111;76;21049;-57
2022/10/17 02:19:16;;;;;;;8.13;5.58;;;13.20;91.10;;;;;;1872458;75;21022;-58
2022/10/17 02:22:10;;;;;;;7.55;5.35;;;13.20;91.20;;;;;;1872118;76;21025;-57
2022/10/17 02:24:45;;;;;;;7.12;5.78;;;13.20;91.20;;;;;;1811145;77;21162;-56
2022/10/17 02:27:39;;;;;;;6.37;5.20;;;13.20;91.20;;;;;;1872820;75;21085;-57
2022/10/17 02:30:35;;;;;;;11.05;5.50;;;13.20;91.10;;;;;;1872892;77;21140;-57
2022/10/17 02:33:11;;;;;;;7.08;4.92;;;13.20;91.10;;;;;;1872531;76;21061;-57
2022/10/17 02:35:40;;;;;;;;;;;13.10;91.10;;;;;;1875797;77;21127;-57
2022/10/17 02:38:12;;;;;;;5.58;4.47;;;13.10;91.20;;;;;;1872888;76;20144;-57
2022/10/17 02:40:44;;;;;;;4.72;4.22;;;13.10;91.10;;;;;;1872670;76;21123;-57
2022/10/17 02:43:14;;;;;;;6.35;5.53;;;13.10;91.10;;;;;;1872869;77;21037;-57
2022/10/17 02:45:43;;;;;;;6.90;6.00;;;13.10;91.20;;;;;;1872791;77;21042;-57
2022/10/17 02:48:43;;;;;;;11.85;5.20;;;13.10;91.20;;;;;;1872799;77;21530;-57
2022/10/17 02:51:34;;;;;;;6.47;4.80;;;13.10;91.30;;;;;;1872215;75;21010;-57
2022/10/17 02:54:20;;;;;;;6.95;4.80;;;13.00;91.30;;;;;;1872796;76;21013;-57
2022/10/17 02:56:52;;;;;;;10.08;5.25;;;13.00;91.30;;;;;;1872566;76;21099;-57
2022/10/17 02:59:27;;;;;;;7.97;5.08;;;13.00;91.40;;;;;;1873008;77;21041;-57
2022/10/17 03:01:56;;;;;;;6.62;5.10;;;13.00;91.50;;;;;;1872771;77;21045;-57
2022/10/17 03:04:26;;;;;;;6.20;4.90;;;13.00;91.40;;;;;;1872843;76;21053;-57
2022/10/17 03:06:55;;;;;;;7.53;4.75;;;13.00;91.50;;;;;;1872889;76;21049;-57
2022/10/17 03:09:24;;;;;;;6.20;4.62;;;12.90;91.40;;;;;;1872744;76;21046;-57
2022/10/17 03:11:53;;;;;;;5.90;4.67;;;12.90;91.40;;;;;;1872785;77;21092;-57
2022/10/17 03:14:22;;;;;;;6.42;4.65;;;12.80;91.40;;;;;;1872819;75;21022;-57
2022/10/17 03:16:52;;;;;;;8.83;4.62;;;12.80;91.50;;;;;;1872785;77;21022;-57
2022/10/17 03:19:22;;;;;;;7.60;4.62;;;12.70;91.50;;;;;;1872744;77;21025;-57
2022/10/17 03:21:52;;;;;;;4.95;4.45;;;12.70;91.60;;;;;;1872947;77;20997;-57
2022/10/17 03:24:22;;;;;;;5.85;5.15;;;12.70;91.50;;;;;;1872752;77;21115;-57
2022/10/17 03:26:51;;;;;;;7.15;4.87;;;12.70;91.60;;;;;;1872792;77;21022;-57
2022/10/17 03:29:21;;;;;;;6.58;4.72;;;12.70;91.60;;;;;;1872833;77;21447;-57
2022/10/17 03:31:50;;;;;;;7.95;4.83;;;12.70;91.60;;;;;;1872913;77;21096;-57
2022/10/17 03:34:20;;;;;;;13.78;9.38;;;12.60;91.70;;;;;;1872840;77;20994;-57
2022/10/17 03:36:49;;;;;;;6.67;5.97;;;12.60;91.70;;;;;;1872713;77;21026;-57
2022/10/17 03:39:20;;;;;;;6.47;5.42;;;12.60;91.70;;;;;;1872902;76;21111;-57
2022/10/17 03:41:49;;;;;;;8.68;6.17;;;12.60;91.80;;;;;;1872768;77;21018;-57
2022/10/17 03:44:19;;;;;;;6.42;4.78;;;12.60;91.80;;;;;;1872737;76;21041;-57
2022/10/17 03:46:49;;;;;;;6.62;4.90;;;12.60;91.80;;;;;;1848489;77;21119;-57
2022/10/17 03:49:18;;;;;;;7.20;5.60;;;12.60;91.80;;;;;;1872799;77;21069;-57
2022/10/17 03:51:47;;;;;;;6.72;5.58;;;12.60;91.80;;;;;;1872879;76;21065;-57
2022/10/17 03:54:18;;;;;;;6.70;5.45;;;12.60;91.80;;;;;;1872856;77;21087;-57
2022/10/17 03:56:48;;;;;;;7.90;5.72;;;12.60;91.90;;;;;;1872914;76;21073;-57
2022/10/17 03:59:18;;;;;;;8.43;5.53;;;12.60;91.90;;;;;;1872965;77;21166;-57
2022/10/17 04:01:49;;;;;;;6.17;5.45;;;12.50;91.90;;;;;;1871758;76;21174;-57
2022/10/17 04:04:19;;;;;;;7.83;6.17;;;12.50;91.90;;;;;;1872816;76;21084;-57
2022/10/17 04:06:48;;;;;;;9.80;5.97;;;12.50;92.00;;;;;;1872972;75;21065;-57
2022/10/17 04:09:18;;;;;;;8.55;6.17;;;12.50;92.10;;;;;;1872827;77;21058;-57
2022/10/17 04:12:00;;;;;;;8.73;5.78;;;12.50;92.00;;;;;;1872354;76;21101;-57
2022/10/17 04:14:31;;;;;;;9.03;5.75;;;12.50;92.00;;;;;;1872936;77;21045;-57
2022/10/17 04:17:00;;;;;;;10.28;6.30;;;12.50;92.00;;;;;;1872947;76;21042;-57
2022/10/17 04:19:30;;;;;;;7.33;6.03;;;12.50;92.00;;;;;;1872842;75;21050;-57
2022/10/17 04:21:59;;;;;;;6.87;5.28;;;12.50;92.00;;;;;;1872827;77;21014;-57
2022/10/17 04:24:30;;;;;;;6.47;5.67;;;12.60;92.00;;;;;;1872062;76;21069;-57
2022/10/17 04:27:05;;;;;;;11.97;7.22;;;12.60;92.10;;;;;;1871904;76;21093;-57
2022/10/17 04:29:35;;;;;;;7.90;7.00;;;12.70;92.20;;;;;;1872388;76;21096;-58
2022/10/17 04:32:16;;;;;;;9.78;6.80;;;12.70;92.20;;;;;;1872040;76;21065;-57
2022/10/17 04:34:50;;;;;;;9.10;6.47;;;12.80;92.10;;;;;;1872235;76;21095;-56
2022/10/17 04:37:21;;;;;;;16.93;9.83;;;12.80;92.10;;;;;;1872900;77;21045;-57
2022/10/17 04:39:51;;;;;;;14.87;9.48;;;12.80;92.10;;;;;;1872882;77;21053;-57
2022/10/17 04:42:20;;;;;;;17.07;10.32;;;12.80;92.00;;;;;;1872863;77;21083;-57
2022/10/17 04:44:50;;;;;;;8.45;7.00;;;12.80;92.00;;;;;;1872751;77;21008;-57
2022/10/17 04:47:20;;;;;;;11.40;6.60;;;12.80;92.10;;;;;;1872793;77;21029;-56
2022/10/17 04:49:49;;;;;;;12.20;8.55;;;12.80;92.10;;;;;;1872739;77;21171;-57
2022/10/17 04:52:18;;;;;;;8.30;7.10;;;12.80;92.10;;;;;;1872744;75;21143;-57
2022/10/17 04:54:49;;;;;;;7.62;5.97;;;12.80;92.10;;;;;;1872399;77;21088;-57
2022/10/17 04:57:19;;;;;;;10.78;9.05;;;12.80;92.10;;;;;;1872731;76;21395;-57
2022/10/17 04:59:52;;;;;;;17.20;13.85;;;12.90;92.20;;;;;;1871341;77;21065;-57
2022/10/17 05:02:39;;;;;;;13.70;8.43;;;12.90;92.20;;;;;;1872689;77;21173;-57
2022/10/17 05:05:09;;;;;;;10.98;7.15;;;12.90;92.30;;;;;;1872677;77;21248;-57
2022/10/17 05:07:40;;;;;;;6.85;5.65;;;12.90;92.30;;;;;;1872782;76;21013;-57
2022/10/17 05:10:11;;;;;;;10.82;6.47;;;12.90;92.20;;;;;;1871328;77;21074;-57
2022/10/17 05:12:42;;;;;;;8.93;5.53;;;13.00;92.30;;;;;;1872786;76;21139;-57
2022/10/17 05:15:11;;;;;;;7.30;5.80;;;12.90;92.00;;;;;;1872804;76;21033;-57
2022/10/17 05:17:40;;;;;;;10.78;6.65;;;12.90;92.00;;;;;;1872560;76;21021;-57
2022/10/17 05:20:10;;;;;;;6.30;5.70;;;12.80;91.90;;;;;;1872803;77;21123;-57
2022/10/17 05:22:40;;;;;;;9.15;5.05;;;12.70;92.00;;;;;;1872676;77;21034;-56
2022/10/17 05:25:10;;;;;;;5.25;4.60;;;12.70;92.10;;;;;;1872763;76;21127;-57
2022/10/17 05:27:39;;;;;;;7.28;5.03;;;12.70;92.10;;;;;;1872586;76;21150;-56
2022/10/17 05:30:10;;;;;;;10.20;7.42;;;12.70;92.10;;;;;;1872594;77;21069;-57
2022/10/17 05:32:39;;;;;;;8.08;6.12;;;12.70;92.20;;;;;;1872670;77;21009;-57
2022/10/17 05:35:09;;;;;;;9.85;6.17;;;12.70;92.10;;;;;;1872650;77;21061;-56
2022/10/17 05:37:38;;;;;;;9.40;6.20;;;12.70;92.10;;;;;;1872508;77;21064;-57
2022/10/17 05:40:09;;;;;;;7.83;5.53;;;12.70;92.20;;;;;;1872554;77;21100;-57
2022/10/17 05:42:38;;;;;;;8.33;5.30;;;12.70;92.10;;;;;;1872557;75;21018;-57
2022/10/17 05:45:09;;;;;;;6.05;4.50;;;12.70;92.00;;;;;;1872678;77;21065;-57
2022/10/17 05:47:39;;;;;;;7.22;5.33;;;12.60;91.90;;;;;;1872719;77;21057;-57
2022/10/17 05:50:09;;;;;;;6.42;5.25;;;12.60;92.00;;;;;;1872670;77;21021;-57
2022/10/17 05:52:40;;;;;;;7.05;4.78;;;12.60;92.10;;;;;;1869160;75;21060;-57
2022/10/17 05:55:13;;;;;;;7.75;4.47;;;12.60;92.00;;;;;;1872502;76;21086;-56
2022/10/17 05:57:42;;;;;;;6.50;4.97;;;12.60;92.00;;;;;;1872542;77;21448;-57
2022/10/17 06:00:13;;;;;;;6.50;4.70;;;12.60;91.90;;;;;;1872268;76;21045;-57
2022/10/17 06:02:44;;;;;;;13.58;7.78;;;12.70;91.90;;;;;;1872627;77;21008;-57
2022/10/17 06:05:15;;;;;;;21.95;11.28;;;12.70;92.00;;;;;;1872602;76;21026;-57
2022/10/17 06:07:45;;;;;;;16.35;9.68;;;12.70;91.80;;;;;;1872611;77;21069;-57
2022/10/17 06:10:16;;;;;;;11.80;8.15;;;12.70;91.70;;;;;;1872630;75;21022;-56
2022/10/17 06:12:45;;;;;;;15.63;6.37;;;12.70;91.80;;;;;;1872599;76;21112;-56
2022/10/17 06:15:15;;;;;;;15.25;10.55;;;12.70;91.50;;;;;;1872557;77;21115;-57
2022/10/17 06:17:46;;;;;;;24.43;14.87;;;12.70;91.60;;;;;;1872108;76;21101;-57
2022/10/17 06:20:16;;;;;;;27.15;15.85;;;12.70;91.60;;;;;;1872575;77;21120;-57
2022/10/17 06:22:45;;;;;;;12.25;8.43;;;12.70;91.60;;;;;;1872621;76;21013;-57
2022/10/17 06:25:16;;;;;;;16.67;8.80;;;12.70;91.40;;;;;;1871811;76;21050;-57
2022/10/17 06:27:45;;;;;;;15.00;10.50;;;12.60;91.10;;;;;;1872694;76;21092;-57
2022/10/17 06:30:14;;;;;;;15.50;9.78;;;12.60;91.30;;;;;;1872858;77;21103;-57
2022/10/17 06:32:44;;;;;;;18.55;10.93;;;12.60;91.30;;;;;;1872692;76;21029;-57
2022/10/17 06:35:14;;;;;;;14.73;10.65;;;12.60;91.40;;;;;;1872917;77;21021;-57
2022/10/17 06:37:43;;;;;;;10.32;8.35;;;12.60;91.50;;;;;;1872853;76;21009;-57
2022/10/17 06:40:15;;;;;;;10.63;8.05;;;12.70;91.50;;;;;;1872998;76;21073;-57
2022/10/17 06:42:44;;;;;;;11.65;6.83;;;12.80;91.50;;;;;;1872969;76;21095;-57
2022/10/17 06:45:33;;;;;;;9.35;6.30;;;12.80;91.20;;;;;;1855636;77;21123;-56
2022/10/17 06:48:20;;;;;;;21.33;6.97;;;12.80;91.10;;;;;;1872828;76;21573;-57
2022/10/17 06:51:10;;;;;;;10.70;8.00;;;12.80;91.10;;;;;;1871792;76;21118;-57
2022/10/17 06:53:41;;;;;;;18.87;8.78;;;12.80;91.00;;;;;;1880008;76;21069;-57
2022/10/17 06:56:12;;;;;;;11.08;9.55;;;12.70;90.70;;;;;;1877797;76;21024;-57
2022/10/17 06:59:00;;;;;;;10.05;8.10;;;12.70;90.80;;;;;;1882194;76;21093;-56
2022/10/17 07:01:34;;;;;;;9.60;5.95;;;12.70;91.20;;;;;;1881482;76;21147;-57
2022/10/17 07:04:05;;;;;;;7.37;6.15;;;12.70;90.70;;;;;;1882094;75;21132;-57
2022/10/17 07:06:35;;;;;;;9.63;6.28;;;12.70;90.80;;;;;;1882324;76;21118;-57
2022/10/17 07:09:06;;;;;;;9.33;7.47;;;12.70;90.70;;;;;;1881139;76;21047;-57
2022/10/17 07:11:36;;;;;;;7.10;5.85;;;12.80;90.90;;;;;;1882161;76;21103;-57
2022/10/17 07:14:06;;;;;;;7.25;4.87;;;12.80;90.90;;;;;;1882303;76;21009;-57
2022/10/17 07:16:35;;;;;;;7.08;4.72;;;12.80;90.60;;;;;;1882334;75;21013;-56
2022/10/17 07:19:12;;;;;;;7.25;5.53;;;12.90;90.80;;;;;;1880679;76;21085;-57
2022/10/17 07:21:42;;;;;;;12.18;8.53;;;12.90;90.70;;;;;;1882164;76;21179;-56
2022/10/17 07:24:12;;;;;;;6.70;4.45;;;12.90;90.60;;;;;;1882199;76;21045;-57
2022/10/17 07:26:43;;;;;;;6.67;4.50;;;12.90;90.30;;;;;;1881492;76;21078;-57
2022/10/17 07:29:13;;;;;;;8.30;6.30;;;12.90;90.20;;;;;;1882515;76;21049;-57
2022/10/17 07:31:47;;;;;;;9.63;5.92;;;12.90;90.10;;;;;;1881112;76;21081;-57
2022/10/17 07:34:15;;;;;;;7.58;6.08;;;12.90;90.20;;;;;;1882133;76;21452;-57
2022/10/17 07:36:46;;;;;;;5.50;4.00;;;12.90;90.30;;;;;;1882406;76;21045;-57
2022/10/17 07:39:16;;;;;;;8.85;4.12;;;13.00;90.30;;;;;;1882272;76;21025;-57
2022/10/17 07:41:49;;;;;;;6.05;4.40;;;13.00;90.10;;;;;;1882357;76;21093;-57
2022/10/17 07:44:19;;;;;;;6.58;4.10;;;13.00;90.20;;;;;;1882529;76;21037;-57
2022/10/17 07:46:50;;;;;;;7.22;4.92;;;13.00;90.20;;;;;;1882091;76;21183;-56
2022/10/17 07:49:20;;;;;;;10.75;5.17;;;13.00;90.30;;;;;;1882170;76;21154;-56
2022/10/17 07:51:49;;;;;;;4.83;4.30;;;13.10;90.30;;;;;;1882251;76;21029;-57
2022/10/17 07:54:18;;;;;;;7.87;4.40;;;13.10;90.30;;;;;;1873373;76;21164;-57
2022/10/17 07:56:49;;;;;;;7.62;4.45;;;13.10;90.30;;;;;;1872808;77;21042;-57
2022/10/17 07:59:19;;;;;;;6.50;3.77;;;13.20;90.20;;;;;;1872769;77;21559;-57
2022/10/17 08:01:47;;;;;;;7.10;5.42;;;13.20;90.20;;;;;;1872812;76;21083;-57
2022/10/17 08:04:17;;;;;;;12.10;4.90;;;13.20;90.10;;;;;;1872808;77;21010;-57
2022/10/17 08:06:46;;;;;;;7.50;4.42;;;13.20;90.10;;;;;;1872827;77;21229;-57
2022/10/17 08:09:15;;;;;;;9.33;4.85;;;13.30;90.20;;;;;;1872856;77;21029;-57
2022/10/17 08:11:44;;;;;;;5.87;3.90;;;13.30;90.00;;;;;;1873059;77;21060;-57
2022/10/17 08:14:15;;;;;;;14.03;8.65;;;13.30;89.90;;;;;;1872857;77;21010;-57
2022/10/17 08:16:45;;;;;;;5.25;4.20;;;13.30;90.10;;;;;;1872807;77;21005;-57
2022/10/17 08:19:14;;;;;;;7.83;4.15;;;13.30;90.00;;;;;;1872816;77;21014;-56
2022/10/17 08:21:43;;;;;;;8.75;4.50;;;13.40;90.40;;;;;;1871347;77;21158;-58
2022/10/17 08:24:13;;;;;;;5.75;4.22;;;13.40;90.70;;;;;;1872134;75;21084;-58
2022/10/17 08:26:42;;;;;;;8.25;5.12;;;13.60;90.90;;;;;;1872270;77;21065;-57
2022/10/17 08:29:15;;;;;;;5.67;4.37;;;13.70;90.80;;;;;;1871985;77;21148;-57
2022/10/17 08:31:44;;;;;;;5.05;4.03;;;13.90;91.00;;;;;;1871954;77;21037;-57
2022/10/17 08:34:25;;;;;;;5.28;3.77;;;14.00;90.70;;;;;;1872110;77;21104;-57
2022/10/17 08:36:55;;;;;;;6.58;3.77;;;14.10;90.70;;;;;;1871980;77;21045;-56
2022/10/17 08:39:24;;;;;;;8.28;4.08;;;14.10;90.60;;;;;;1871957;77;21144;-57
2022/10/17 08:42:16;;;;;;;7.53;4.33;;;14.20;90.40;;;;;;1870946;76;21069;-56
2022/10/17 08:45:13;;;;;;;4.05;3.40;;;14.30;90.40;;;;;;1872311;77;21018;-57
2022/10/17 08:47:47;;;;;;;5.65;4.15;;;14.30;90.40;;;;;;1872032;76;21006;-57
2022/10/17 08:50:26;;;;;;;6.67;4.25;;;14.30;90.40;;;;;;1872153;76;21198;-59
2022/10/17 08:53:06;;;;;;;6.60;4.05;;;14.40;90.30;;;;;;1862131;76;21065;-57
2022/10/17 08:55:44;;;;;;;5.83;3.42;;;14.40;90.20;;;;;;1840556;76;21642;-57
2022/10/17 08:58:21;;;;;;;6.20;4.53;;;14.40;90.20;;;;;;1872188;76;21097;-56
2022/10/17 09:01:08;;;;;;;4.95;3.90;;;14.50;90.30;;;;;;1872136;77;21452;-57
2022/10/17 09:04:04;;;;;;;7.30;5.45;;;14.60;90.30;;;;;;1871770;76;21538;-57
2022/10/17 09:06:36;;;;;;;;;;;14.60;90.00;;;;;;1874404;76;21045;-57
2022/10/17 09:09:17;;;;;;;9.05;5.45;;;14.60;90.10;;;;;;1872216;77;20106;-57
2022/10/17 09:11:49;;;;;;;6.62;5.15;;;14.60;90.00;;;;;;1871183;76;21049;-57
2022/10/17 09:14:23;;;;;;;7.28;5.72;;;14.60;89.90;;;;;;1833251;77;21049;-54
2022/10/17 09:17:17;;;;;;;8.25;7.10;;;14.50;89.90;;;;;;1872357;77;21495;-54
2022/10/17 09:20:06;;;;;;;5.85;4.97;;;14.40;89.80;;;;;;1870755;76;21109;-55
2022/10/17 09:22:44;;;;;;;8.63;6.00;;;14.40;90.00;;;;;;1871462;76;21471;-53
2022/10/17 09:25:16;;;;;;;10.82;8.13;;;14.30;90.10;;;;;;1872277;77;21033;-55
2022/10/17 09:27:55;;;;;;;9.40;6.75;;;14.30;90.30;;;;;;1872033;77;21653;-55
2022/10/17 09:30:41;;;;;;;8.05;5.58;;;14.30;90.40;;;;;;1870541;76;21159;-57
2022/10/17 09:33:15;;;;;;;8.78;6.92;;;14.30;90.50;;;;;;1872290;77;21045;-57
2022/10/17 09:35:45;;;;;;;10.03;6.50;;;14.30;90.60;;;;;;1870977;76;21589;-56
2022/10/17 09:38:20;;;;;;;8.83;6.90;;;14.30;90.70;;;;;;1872059;77;21127;-55
2022/10/17 09:40:57;;;;;;;8.78;6.97;;;14.20;90.90;;;;;;1872297;75;21034;-56
2022/10/17 09:43:27;;;;;;;6.90;5.00;;;14.20;90.80;;;;;;1868217;77;21006;-55
2022/10/17 09:46:13;;;;;;;12.70;6.42;;;14.20;91.00;;;;;;1872200;77;21101;-54
2022/10/17 09:48:48;;;;;;;10.60;5.80;;;14.20;90.80;;;;;;1864646;77;21096;-56
2022/10/17 09:51:18;;;;;;;11.20;7.00;;;14.20;91.00;;;;;;1872216;75;21073;-57
2022/10/17 09:53:53;;;;;;;9.88;7.00;;;14.20;91.00;;;;;;1872212;75;21033;-56
2022/10/17 09:56:22;;;;;;;7.75;6.12;;;14.20;91.10;;;;;;1872340;76;21108;-56
2022/10/17 09:58:54;;;;;;;9.18;6.30;;;14.20;91.10;;;;;;1872163;77;21206;-56
2022/10/17 10:01:28;;;;;;;7.12;6.03;;;14.20;91.10;;;;;;1872097;76;21460;-56
2022/10/17 10:04:15;;;;;;;8.35;6.58;;;14.20;91.20;;;;;;1872504;76;21050;-56
2022/10/17 10:07:03;;;;;;;8.28;5.80;;;14.20;91.20;;;;;;1872282;77;21027;-57
2022/10/17 10:09:35;;;;;;;9.10;6.17;;;14.20;91.20;;;;;;1871596;76;21158;-57
2022/10/17 10:12:07;;;;;;;9.88;7.03;;;14.20;91.30;;;;;;1872148;77;21043;-57
2022/10/17 10:14:38;;;;;;;6.97;5.65;;;14.20;91.30;;;;;;1871820;76;21422;-57
2022/10/17 10:17:26;;;;;;;8.08;5.70;;;14.20;91.40;;;;;;1872140;77;21152;-58
2022/10/17 10:19:56;;;;;;;10.53;6.22;;;14.20;91.30;;;;;;1885351;75;21019;-58
2022/10/17 10:22:25;;;;;;;12.93;6.75;;;14.20;91.30;;;;;;1897056;75;21070;-58
2022/10/17 10:25:12;;;;;;;11.45;7.78;;;14.20;91.30;;;;;;1888679;75;21110;-54
2022/10/17 10:27:43;;;;;;;9.95;5.90;;;14.20;91.30;;;;;;1882321;75;21543;-57
2022/10/17 10:30:23;;;;;;;15.80;10.70;;;14.20;91.30;;;;;;1889144;75;21078;-56
2022/10/17 10:32:55;;;;;;;9.68;6.53;;;14.20;91.30;;;;;;1884058;75;21013;-58
2022/10/17 10:35:34;;;;;;;8.90;6.05;;;14.20;91.40;;;;;;1887447;75;21552;-58
2022/10/17 10:38:12;;;;;;;10.43;7.15;;;14.20;91.40;;;;;;1888001;75;21080;-57
2022/10/17 10:40:56;;;;;;;10.10;7.05;;;14.20;91.40;;;;;;1882294;75;21064;-57
2022/10/17 10:43:43;;;;;;;9.00;6.23;;;14.10;91.50;;;;;;1875121;75;21102;-59
2022/10/17 10:46:20;;;;;;;13.20;7.70;;;14.10;91.60;;;;;;1891032;75;21144;-57
2022/10/17 10:48:59;;;;;;;11.83;8.15;;;14.10;91.60;;;;;;1899057;75;21542;-56
2022/10/17 10:51:40;;;;;;;12.90;7.17;;;14.10;91.60;;;;;;1898608;75;21170;-55
2022/10/17 10:54:21;;;;;;;9.95;7.50;;;14.10;91.70;;;;;;1868081;75;21072;-56
2022/10/17 10:56:56;;;;;;;11.33;7.12;;;14.10;91.60;;;;;;1882790;75;21052;-56
2022/10/17 10:59:31;;;;;;;8.93;7.22;;;14.10;91.70;;;;;;1872333;77;21112;-54
2022/10/17 11:02:31;;;;;;;17.60;9.40;;;14.10;91.60;;;;;;1873893;75;21526;-54
2022/10/17 11:05:21;;;;;;;10.32;6.35;;;14.20;91.70;;;;;;1872259;76;21134;-55
2022/10/17 11:08:02;;;;;;;11.65;7.90;;;14.20;91.70;;;;;;1879039;75;21024;-49
2022/10/17 11:10:43;;;;;;;13.20;7.70;;;14.20;91.70;;;;;;1904218;74;21145;-53
2022/10/17 11:13:20;;;;;;;10.48;7.80;;;14.10;91.70;;;;;;1904694;75;21054;-55
2022/10/17 11:16:01;;;;;;;10.75;7.90;;;14.10;91.70;;;;;;1876750;74;21123;-55
2022/10/17 11:18:42;;;;;;;11.28;8.35;;;14.10;91.70;;;;;;1872023;76;21525;-55
2022/10/17 11:21:32;;;;;;;15.32;10.43;;;14.10;91.80;;;;;;1872144;76;21320;-56
2022/10/17 11:24:20;;;;;;;11.78;7.60;;;14.10;91.80;;;;;;1889105;75;21064;-56
2022/10/17 11:27:04;;;;;;;12.28;6.62;;;14.10;91.90;;;;;;1902491;75;21036;-52
2022/10/17 11:29:37;;;;;;;10.65;7.37;;;14.10;91.90;;;;;;1887845;75;21444;-55
2022/10/17 11:32:12;;;;;;;15.38;8.23;;;14.10;91.90;;;;;;1890565;75;21110;-56
2022/10/17 11:34:44;;;;;;;12.30;7.78;;;14.10;91.80;;;;;;1896026;75;21095;-52
2022/10/17 11:37:24;;;;;;;12.70;8.30;;;14.20;91.90;;;;;;1890891;74;21830;-55
2022/10/17 11:40:02;;;;;;;13.03;8.28;;;14.10;92.00;;;;;;1901822;74;21079;-55
2022/10/17 11:42:37;;;;;;;11.22;8.85;;;14.20;92.00;;;;;;1876811;75;21465;-49
2022/10/17 11:45:15;;;;;;;;;;;14.20;91.90;;;;;;1879298;75;21613;-49
2022/10/17 11:47:53;;;;;;;9.58;7.65;;;14.20;92.10;;;;;;1891300;75;20111;-50
2022/10/17 11:50:34;;;;;;;10.45;7.35;;;14.10;91.90;;;;;;1889548;75;21451;-52
2022/10/17 11:53:05;;;;;;;11.00;7.85;;;14.10;92.00;;;;;;1897809;75;21085;-53
2022/10/17 11:55:37;;;;;;;14.47;8.85;;;14.10;92.00;;;;;;1887943;75;21685;-53
2022/10/17 11:58:30;;;;;;;16.62;9.23;;;14.10;92.00;;;;;;1914201;75;21171;-56
2022/10/17 12:01:08;;;;;;;11.70;7.97;;;14.10;92.10;;;;;;1901062;75;21119;-54
2022/10/17 12:03:55;;;;;;;12.63;8.13;;;14.10;92.10;;;;;;1886221;75;21116;-56
2022/10/17 12:07:02;;;;;;;8.90;7.20;;;14.10;92.10;;;;;;1825949;77;21051;-57
2022/10/17 12:09:49;;;;;;;11.25;7.25;;;14.10;92.10;;;;;;1904881;75;21163;-52
2022/10/17 12:12:32;;;;;;;14.53;7.12;;;14.10;92.00;;;;;;1896973;75;21073;-50
2022/10/17 12:15:24;;;;;;;11.12;8.10;;;14.10;92.10;;;;;;1892664;75;21559;-51
2022/10/17 12:18:02;;;;;;;11.75;8.18;;;14.10;92.00;;;;;;1884783;75;21022;-56
2022/10/17 12:20:36;;;;;;;10.95;7.15;;;14.10;92.10;;;;;;1877991;76;21022;-57
2022/10/17 12:23:13;;;;;;;11.45;7.20;;;14.20;92.00;;;;;;1904341;75;21065;-55
2022/10/17 12:25:54;;;;;;;10.00;6.75;;;14.20;92.00;;;;;;1909174;75;21069;-53
2022/10/17 12:28:35;;;;;;;8.38;6.83;;;14.20;92.00;;;;;;1889663;75;21034;-53
2022/10/17 12:31:11;;;;;;;10.35;6.05;;;14.20;92.00;;;;;;1899214;75;21143;-54
2022/10/17 12:33:54;;;;;;;10.65;6.45;;;14.20;91.90;;;;;;1891011;75;21066;-58
2022/10/17 12:36:28;;;;;;;9.18;7.10;;;14.20;91.90;;;;;;1882409;76;21053;-57
2022/10/17 12:39:10;;;;;;;8.90;6.70;;;14.20;91.90;;;;;;1882663;76;21033;-57
2022/10/17 12:41:45;;;;;;;9.75;6.35;;;14.20;91.90;;;;;;1882205;76;21009;-56
2022/10/17 12:44:20;;;;;;;9.63;6.20;;;14.20;92.00;;;;;;1882400;76;21042;-57
2022/10/17 12:46:50;;;;;;;11.60;5.75;;;14.20;91.90;;;;;;1882126;76;21045;-55
2022/10/17 12:49:38;;;;;;;8.58;5.87;;;14.10;91.90;;;;;;1882359;76;21197;-56
2022/10/17 12:52:16;;;;;;;10.45;6.03;;;14.10;92.00;;;;;;1882286;76;20997;-58
2022/10/17 12:55:06;;;;;;;7.70;5.30;;;14.10;92.00;;;;;;1881645;75;21029;-57
2022/10/17 12:57:57;;;;;;;8.60;5.40;;;14.10;92.40;;;;;;1872966;77;21118;-54
2022/10/17 13:00:29;;;;;;;9.73;7.37;;;14.10;92.10;;;;;;1872848;77;21512;-55
2022/10/17 13:03:03;;;;;;;8.10;6.47;;;14.10;92.10;;;;;;1873035;76;21047;-55
2022/10/17 13:05:41;;;;;;;10.43;5.53;;;14.10;92.10;;;;;;1872567;76;21092;-55
2022/10/17 13:08:15;;;;;;;8.58;5.78;;;14.10;92.10;;;;;;1872957;77;21027;-56
2022/10/17 13:10:47;;;;;;;10.30;6.60;;;14.10;92.30;;;;;;1861512;77;21020;-56
2022/10/17 13:13:22;;;;;;;8.90;6.42;;;14.10;92.30;;;;;;1872862;75;21003;-56
2022/10/17 13:15:53;;;;;;;7.45;5.90;;;14.10;92.20;;;;;;1873074;77;21047;-54
2022/10/17 13:18:25;;;;;;;16.27;12.45;;;14.10;92.30;;;;;;1872973;77;21195;-54
2022/10/17 13:21:02;;;;;;;10.23;5.47;;;14.10;92.10;;;;;;1872880;77;21127;-56
2022/10/17 13:23:38;;;;;;;7.28;4.58;;;14.10;92.30;;;;;;1871694;76;21047;-54